Time;durP1;ratioP1;P1;durP2;ratioP2;P2;SDS_P1;SDS_P2;PMS_P1;PMS_P2;Temp;Humidity;BMP_temperature;BMP_pressure;BME280_temperature;BME280_humidity;BME280_pressure;Samples;Min_cycle;Max_cycle;Signal;HPM_P1;HPM_P2
2022/11/15 00:00:48;;;;;;;28.97;20.77;;;4.20;1.00;;;;;;5049118;28;20312;-82
2022/11/15 00:03:19;;;;;;;29.10;21.00;;;4.20;72.00;;;;;;5048375;28;20622;-82
2022/11/15 00:05:44;;;;;;;25.40;18.77;;;4.10;99.90;;;;;;5049059;28;20209;-82
2022/11/15 00:08:10;;;;;;;26.37;18.43;;;4.10;99.90;;;;;;5049043;28;20198;-83
2022/11/15 00:10:37;;;;;;;21.70;16.27;;;4.10;1.00;;;;;;5047133;28;20227;-82
2022/11/15 00:13:07;;;;;;;25.50;18.07;;;4.20;1.00;;;;;;5047813;28;20182;-82
2022/11/15 00:15:40;;;;;;;30.47;22.50;;;4.30;99.90;;;;;;5046409;28;20219;-83
2022/11/15 00:18:11;;;;;;;25.97;18.50;;;4.40;12.10;;;;;;5046786;28;20194;-82
2022/11/15 00:20:37;;;;;;;28.43;17.87;;;4.30;1.00;;;;;;5046165;28;20273;-82
2022/11/15 00:23:06;;;;;;;25.97;17.63;;;4.10;99.90;;;;;;5046825;28;20350;-81
2022/11/15 00:25:33;;;;;;;26.63;18.83;;;4.00;1.00;;;;;;5045671;28;20206;-82
2022/11/15 00:28:00;;;;;;;25.40;17.83;;;3.90;99.90;;;;;;5045386;28;20225;-82
2022/11/15 00:30:26;;;;;;;30.17;20.23;;;3.80;99.90;;;;;;5044683;28;20304;-83
2022/11/15 00:32:52;;;;;;;27.70;19.57;;;3.80;1.00;;;;;;5043337;28;20655;-82
2022/11/15 00:35:18;;;;;;;33.30;23.37;;;4.60;99.90;;;;;;5044617;28;20208;-82
2022/11/15 00:37:44;;;;;;;26.13;19.53;;;3.70;1.00;;;;;;5047442;28;20193;-83
2022/11/15 00:40:12;;;;;;;28.73;19.43;;;3.60;1.00;;;;;;5045488;28;20190;-82
2022/11/15 00:42:38;;;;;;;30.73;20.80;;;3.60;1.00;;;;;;5046026;28;20655;-82
2022/11/15 00:45:04;;;;;;;28.00;18.87;;;3.60;99.90;;;;;;5045554;28;20236;-82
2022/11/15 00:47:29;;;;;;;28.73;20.30;;;3.60;99.90;;;;;;5046781;28;20202;-81
2022/11/15 00:49:55;;;;;;;31.80;21.57;;;3.70;1.00;;;;;;5050437;28;20191;-81
2022/11/15 00:52:21;;;;;;;29.27;20.70;;;3.60;99.90;;;;;;5050958;28;20261;-82
2022/11/15 00:54:46;;;;;;;37.47;27.07;;;3.60;99.90;;;;;;5050466;28;20602;-83
2022/11/15 00:57:12;;;;;;;33.83;23.63;;;3.70;1.00;;;;;;5050817;28;20740;-82
2022/11/15 00:59:37;;;;;;;29.20;21.30;;;3.80;1.00;;;;;;5050460;28;20186;-81
2022/11/15 01:02:03;;;;;;;27.90;19.20;;;3.90;1.00;;;;;;5051306;28;20194;-82
2022/11/15 01:04:28;;;;;;;27.77;20.57;;;4.00;1.00;;;;;;5051395;28;20802;-82
2022/11/15 01:06:54;;;;;;;32.53;23.07;;;3.90;75.00;;;;;;5051563;28;20212;-81
2022/11/15 01:09:20;;;;;;;28.40;19.17;;;3.80;1.00;;;;;;5052062;28;20587;-82
2022/11/15 01:11:45;;;;;;;31.27;21.67;;;3.80;1.00;;;;;;5051806;28;20194;-81
2022/11/15 01:14:11;;;;;;;32.67;23.43;;;3.80;99.90;;;;;;5051952;28;20626;-81
2022/11/15 01:16:36;;;;;;;38.10;25.90;;;3.80;99.90;;;;;;5050172;28;20202;-82
2022/11/15 01:19:02;;;;;;;30.90;22.13;;;3.80;99.90;;;;;;5051809;28;20201;-81
2022/11/15 01:21:28;;;;;;;27.37;18.70;;;3.70;99.90;;;;;;5050475;28;20186;-82
2022/11/15 01:23:55;;;;;;;28.07;19.17;;;3.70;1.00;;;;;;5051958;28;21252;-83
2022/11/15 01:26:21;;;;;;;27.87;19.10;;;4.60;1.00;;;;;;5049239;28;20214;-82
2022/11/15 01:28:47;;;;;;;25.57;18.73;;;3.60;99.90;;;;;;5050373;28;20783;-81
2022/11/15 01:31:16;;;;;;;26.37;18.47;;;3.60;1.00;;;;;;5051827;28;20300;-82
2022/11/15 01:33:42;;;;;;;25.30;18.80;;;3.60;1.00;;;;;;5051632;28;21175;-83
2022/11/15 01:36:11;;;;;;;26.27;18.53;;;3.50;1.00;;;;;;5050417;28;20209;-80
2022/11/15 01:38:37;;;;;;;25.97;18.80;;;3.60;82.90;;;;;;5048515;28;20560;-81
2022/11/15 01:41:03;;;;;;;26.97;18.17;;;3.60;99.90;;;;;;5050751;28;20190;-82
2022/11/15 01:43:32;;;;;;;25.00;17.97;;;3.60;99.90;;;;;;5052593;28;20245;-81
2022/11/15 01:46:02;;;;;;;31.97;21.90;;;3.60;1.00;;;;;;5053515;28;20212;-80
2022/11/15 01:48:33;;;;;;;26.90;18.97;;;3.70;81.30;;;;;;5052437;28;20178;-82
2022/11/15 01:51:01;;;;;;;30.60;20.50;;;3.90;99.90;;;;;;5051938;28;20198;-81
2022/11/15 01:53:29;;;;;;;26.70;17.83;;;3.90;61.60;;;;;;5051387;28;20746;-82
2022/11/15 01:55:55;;;;;;;27.93;18.43;;;3.90;1.00;;;;;;5050576;28;20210;-80
2022/11/15 01:58:21;;;;;;;26.73;18.13;;;3.90;1.00;;;;;;5050031;28;20269;-82
2022/11/15 02:00:49;;;;;;;28.93;19.57;;;3.80;1.00;;;;;;5052846;28;20190;-81
2022/11/15 02:03:15;;;;;;;32.27;22.30;;;3.80;1.00;;;;;;5051533;28;20182;-82
2022/11/15 02:05:43;;;;;;;35.80;21.87;;;3.90;99.90;;;;;;5049390;28;20197;-80
2022/11/15 02:08:19;;;;;;;28.63;18.87;;;3.90;99.90;;;;;;5049173;28;20780;-81
2022/11/15 02:10:46;;;;;;;30.40;20.70;;;3.90;99.90;;;;;;5049753;28;20277;-82
2022/11/15 02:13:13;;;;;;;25.97;19.00;;;4.60;99.90;;;;;;5050671;28;20175;-81
2022/11/15 02:15:51;;;;;;;24.67;17.97;;;3.80;99.90;;;;;;5049346;28;20202;-82
2022/11/15 02:18:31;;;;;;;34.13;22.73;;;3.80;99.90;;;;;;5058161;28;20182;-82
2022/11/15 02:21:42;;;;;;;28.93;19.10;;;3.80;95.70;;;;;;5046813;28;20190;-82
2022/11/15 02:24:29;;;;;;;27.33;18.33;;;3.80;77.10;;;;;;5046709;28;20710;-80
2022/11/15 02:27:34;;;;;;;32.43;20.37;;;3.80;99.90;;;;;;5048569;28;20761;-81
2022/11/15 02:30:21;;;;;;;26.60;17.57;;;3.80;1.00;;;;;;5047419;28;20194;-82
2022/11/15 02:33:26;;;;;;;26.43;18.37;;;3.90;1.00;;;;;;5048520;28;20186;-82
2022/11/15 02:35:59;;;;;;;30.13;18.47;;;3.90;1.00;;;;;;5049426;28;20209;-82
2022/11/15 02:38:47;;;;;;;29.97;21.00;;;3.90;1.00;;;;;;5049473;28;20197;-82
2022/11/15 02:41:23;;;;;;;28.10;18.37;;;3.90;99.90;;;;;;5048743;28;20964;-81
2022/11/15 02:44:06;;;;;;;28.27;18.43;;;4.10;1.00;;;;;;5048347;28;20571;-81
2022/11/15 02:47:13;;;;;;;24.77;17.90;;;4.00;65.50;;;;;;5048538;28;20220;-81
2022/11/15 02:49:53;;;;;;;26.50;18.67;;;3.90;61.60;;;;;;5047435;28;20410;-81
2022/11/15 02:52:23;;;;;;;31.43;20.90;;;3.90;1.00;;;;;;5049199;28;20723;-80
2022/11/15 02:54:57;;;;;;;26.30;17.77;;;4.00;1.00;;;;;;5047962;28;20206;-82
2022/11/15 02:57:34;;;;;;;24.33;17.70;;;4.10;94.00;;;;;;5048399;28;20178;-81
2022/11/15 03:00:14;;;;;;;27.33;17.93;;;4.20;99.90;;;;;;5047195;28;20190;-82
2022/11/15 03:03:00;;;;;;;23.03;17.03;;;4.40;1.00;;;;;;5049113;28;20197;-81
2022/11/15 03:05:25;;;;;;;26.63;17.40;;;4.30;1.00;;;;;;5048423;28;21044;-83
2022/11/15 03:08:22;;;;;;;25.53;17.50;;;4.30;1.00;;;;;;5049841;28;20209;-82
2022/11/15 03:11:15;;;;;;;24.70;16.17;;;4.30;1.00;;;;;;5031259;28;20198;-81
2022/11/15 03:14:07;;;;;;;27.37;17.27;;;4.20;1.00;;;;;;5048699;28;20219;-82
2022/11/15 03:16:55;;;;;;;27.57;17.47;;;4.20;99.90;;;;;;5048602;28;20691;-80
2022/11/15 03:19:35;;;;;;;23.30;16.97;;;4.20;99.90;;;;;;5047659;28;20190;-82
2022/11/15 03:22:05;;;;;;;24.83;17.63;;;4.10;10.40;;;;;;5046646;28;20200;-81
2022/11/15 03:24:34;;;;;;;22.83;16.77;;;4.10;1.00;;;;;;5049165;28;20201;-81
2022/11/15 03:27:01;;;;;;;25.17;16.40;;;4.00;1.00;;;;;;5048445;28;20226;-80
2022/11/15 03:29:33;;;;;;;24.47;17.20;;;3.90;99.90;;;;;;5046630;28;20770;-82
2022/11/15 03:32:09;;;;;;;25.93;17.00;;;3.80;99.90;;;;;;5047156;28;20253;-81
2022/11/15 03:34:41;;;;;;;25.37;16.50;;;3.80;99.90;;;;;;5046991;28;20178;-81
2022/11/15 03:37:08;;;;;;;23.83;16.77;;;3.80;99.90;;;;;;5047197;28;20221;-82
2022/11/15 03:39:33;;;;;;;26.90;16.80;;;3.80;1.00;;;;;;5048866;28;20196;-83
2022/11/15 03:42:24;;;;;;;25.30;17.07;;;3.80;1.00;;;;;;5048793;28;21094;-81
2022/11/15 03:45:08;;;;;;;26.87;17.73;;;3.90;64.80;;;;;;5046140;28;20220;-81
2022/11/15 03:47:52;;;;;;;29.10;17.27;;;4.00;99.90;;;;;;5046950;28;20206;-81
2022/11/15 03:50:20;;;;;;;25.87;17.70;;;4.00;1.00;;;;;;5048385;28;20228;-80
2022/11/15 03:52:48;;;;;;;30.00;19.10;;;3.90;1.00;;;;;;5041427;28;20737;-81
2022/11/15 03:55:19;;;;;;;27.83;18.60;;;4.00;1.00;;;;;;5041350;28;20186;-81
2022/11/15 03:57:47;;;;;;;28.03;17.97;;;4.00;1.00;;;;;;5035853;28;20224;-81
2022/11/15 04:00:14;;;;;;;28.90;18.90;;;3.90;99.90;;;;;;5047270;28;20190;-82
2022/11/15 04:02:39;;;;;;;29.57;19.60;;;3.90;1.00;;;;;;5047313;28;20193;-80
2022/11/15 04:05:05;;;;;;;30.57;20.30;;;3.90;1.00;;;;;;5038472;28;20628;-82
2022/11/15 04:07:31;;;;;;;28.83;18.90;;;4.00;1.00;;;;;;5042207;28;20202;-81
2022/11/15 04:10:02;;;;;;;28.57;19.10;;;4.10;99.90;;;;;;5042180;28;20226;-82
2022/11/15 04:12:31;;;;;;;28.40;18.87;;;4.30;1.00;;;;;;5044329;28;20221;-81
2022/11/15 04:15:09;;;;;;;30.03;19.87;;;4.30;1.00;;;;;;5043789;28;20194;-81
2022/11/15 04:17:44;;;;;;;29.30;19.50;;;4.30;99.90;;;;;;5042845;28;20220;-82
2022/11/15 04:25:45;;;;;;;25.90;17.40;;;4.30;99.90;;;;;;5046502;28;20213;-81
2022/11/15 04:28:11;;;;;;;24.43;16.77;;;4.20;1.00;;;;;;5047525;28;20209;-81
2022/11/15 04:30:37;;;;;;;23.30;16.30;;;4.10;99.90;;;;;;5045257;28;20691;-82
2022/11/15 04:33:03;;;;;;;22.33;15.37;;;4.10;1.00;;;;;;5048485;28;20190;-82
2022/11/15 04:35:29;;;;;;;21.30;15.57;;;4.10;99.90;;;;;;5047763;28;20202;-80
2022/11/15 04:37:57;;;;;;;24.03;17.17;;;4.70;1.00;;;;;;5046659;28;20190;-81
2022/11/15 04:40:22;;;;;;;25.03;17.13;;;4.30;99.90;;;;;;5047118;28;20198;-80
2022/11/15 04:42:48;;;;;;;25.50;16.90;;;4.30;99.90;;;;;;5048184;28;20186;-80
2022/11/15 04:45:14;;;;;;;20.23;14.67;;;4.30;99.90;;;;;;5045882;28;20186;-81
2022/11/15 04:47:39;;;;;;;24.40;15.97;;;4.40;1.00;;;;;;5045268;28;20217;-81
2022/11/15 04:50:06;;;;;;;24.30;17.23;;;4.60;1.00;;;;;;5046993;28;20209;-81
2022/11/15 04:52:31;;;;;;;21.60;16.70;;;4.10;1.00;;;;;;5048249;28;20178;-81
2022/11/15 04:54:57;;;;;;;21.40;15.37;;;4.70;1.00;;;;;;5048426;28;20190;-81
2022/11/15 04:57:22;;;;;;;23.03;16.40;;;4.90;1.00;;;;;;5048716;28;20186;-80
2022/11/15 04:59:48;;;;;;;22.53;16.67;;;5.00;1.00;;;;;;5045419;28;20182;-82
2022/11/15 05:02:13;;;;;;;22.50;16.63;;;5.10;1.00;;;;;;5046178;28;20599;-80
2022/11/15 05:04:39;;;;;;;22.37;16.33;;;5.10;99.90;;;;;;5045602;28;20182;-81
2022/11/15 05:07:05;;;;;;;21.07;15.87;;;5.10;1.00;;;;;;5046772;28;20722;-81
2022/11/15 05:09:30;;;;;;;22.00;16.03;;;5.10;99.90;;;;;;5044788;28;20682;-81
2022/11/15 05:11:56;;;;;;;22.77;16.70;;;5.10;99.90;;;;;;5047677;28;20194;-81
2022/11/15 05:14:21;;;;;;;22.73;17.60;;;5.10;1.00;;;;;;5045380;28;20186;-80
2022/11/15 05:16:47;;;;;;;24.17;16.93;;;5.10;99.90;;;;;;5044852;28;20210;-80
2022/11/15 05:19:13;;;;;;;22.90;16.70;;;5.00;1.00;;;;;;5044383;28;20719;-81
2022/11/15 05:21:39;;;;;;;23.03;16.80;;;4.90;99.90;;;;;;5044878;28;20272;-82
2022/11/15 05:24:05;;;;;;;27.07;16.67;;;4.80;99.90;;;;;;5046775;28;20746;-81
2022/11/15 05:26:31;;;;;;;24.13;16.67;;;4.60;1.00;;;;;;5045128;28;20222;-81
2022/11/15 05:28:58;;;;;;;20.80;15.43;;;5.00;1.00;;;;;;5043391;28;20344;-79
2022/11/15 05:31:25;;;;;;;23.27;16.83;;;4.40;1.00;;;;;;5044349;28;20553;-82
2022/11/15 05:33:52;;;;;;;26.30;16.33;;;4.30;1.00;;;;;;5047133;28;20344;-81
2022/11/15 05:36:33;;;;;;;22.70;16.23;;;4.30;1.00;;;;;;5048845;28;20948;-81
2022/11/15 05:38:59;;;;;;;23.87;16.33;;;4.20;1.00;;;;;;5048143;28;20182;-81
2022/11/15 05:41:32;;;;;;;21.57;15.80;;;4.20;99.90;;;;;;5049796;28;20178;-81
2022/11/15 05:43:59;;;;;;;21.30;16.17;;;4.10;99.90;;;;;;5051397;28;20174;-80
2022/11/15 05:46:25;;;;;;;21.37;15.63;;;4.10;99.90;;;;;;5049838;28;20210;-82
2022/11/15 05:48:55;;;;;;;22.00;16.00;;;4.00;99.90;;;;;;5049964;28;20231;-81
2022/11/15 05:51:22;;;;;;;21.50;16.00;;;4.10;99.90;;;;;;5051005;28;20179;-82
2022/11/15 05:53:48;;;;;;;22.07;16.07;;;3.90;1.00;;;;;;5049890;28;20231;-83
2022/11/15 05:56:15;;;;;;;25.83;17.53;;;3.80;99.90;;;;;;5048959;28;20190;-81
2022/11/15 05:58:41;;;;;;;24.60;16.40;;;3.80;1.00;;;;;;5049995;28;20182;-81
2022/11/15 06:01:07;;;;;;;24.20;17.23;;;3.80;1.00;;;;;;5049137;28;20217;-81
2022/11/15 06:03:33;;;;;;;23.07;16.07;;;3.80;1.00;;;;;;5048389;28;20235;-80
2022/11/15 06:05:58;;;;;;;22.93;16.03;;;3.70;1.00;;;;;;5047405;28;20226;-80
2022/11/15 06:08:24;;;;;;;23.97;15.60;;;3.70;1.00;;;;;;5047720;28;20237;-79
2022/11/15 06:10:49;;;;;;;23.47;16.07;;;3.60;96.80;;;;;;5049587;28;20186;-80
2022/11/15 06:13:15;;;;;;;22.03;15.23;;;3.60;99.90;;;;;;5049574;28;20178;-80
2022/11/15 06:15:41;;;;;;;21.63;14.97;;;3.50;99.90;;;;;;5048933;28;20205;-81
2022/11/15 06:18:06;;;;;;;25.27;15.57;;;3.50;99.90;;;;;;5049617;28;20186;-80
2022/11/15 06:20:32;;;;;;;22.80;14.97;;;3.50;1.00;;;;;;5046998;28;20186;-79
2022/11/15 06:23:03;;;;;;;24.20;15.20;;;3.50;1.00;;;;;;5048638;28;20186;-81
2022/11/15 06:25:29;;;;;;;24.20;15.23;;;3.50;1.00;;;;;;5048995;28;20288;-80
2022/11/15 06:27:56;;;;;;;21.07;15.17;;;3.50;1.00;;;;;;5048484;28;20252;-81
2022/11/15 06:30:22;;;;;;;23.10;15.60;;;3.50;99.90;;;;;;5048981;28;20178;-81
2022/11/15 06:32:48;;;;;;;23.90;15.47;;;3.60;99.90;;;;;;5046920;28;20178;-80
2022/11/15 06:35:14;;;;;;;27.70;15.57;;;3.70;1.00;;;;;;5047395;28;20182;-81
2022/11/15 06:37:40;;;;;;;25.10;16.57;;;3.80;99.90;;;;;;5048730;28;20684;-80
2022/11/15 06:40:08;;;;;;;21.23;16.00;;;3.80;1.00;;;;;;5048920;28;20238;-82
2022/11/15 06:42:34;;;;;;;24.50;16.63;;;3.80;99.90;;;;;;5047071;28;20927;-81
2022/11/15 06:45:00;;;;;;;26.27;17.20;;;3.80;88.80;;;;;;5046823;28;20381;-80
2022/11/15 06:47:25;;;;;;;22.63;15.90;;;3.80;99.90;;;;;;5046654;28;20484;-82
2022/11/15 06:49:51;;;;;;;21.30;15.17;;;3.80;1.00;;;;;;5047205;28;20185;-80
2022/11/15 06:52:18;;;;;;;24.70;16.33;;;3.70;1.00;;;;;;5047355;28;20280;-83
2022/11/15 06:54:44;;;;;;;20.07;15.47;;;3.70;1.00;;;;;;5046554;28;20178;-80
2022/11/15 06:57:10;;;;;;;24.07;15.77;;;3.70;99.90;;;;;;5048904;28;20202;-81
2022/11/15 06:59:36;;;;;;;22.87;15.63;;;3.80;99.90;;;;;;5048077;28;20211;-81
2022/11/15 07:02:01;;;;;;;21.00;15.40;;;3.80;99.90;;;;;;5043642;28;20190;-80
2022/11/15 07:04:27;;;;;;;22.37;15.07;;;3.90;1.00;;;;;;5047104;28;20186;-80
2022/11/15 07:06:52;;;;;;;21.70;15.07;;;4.00;1.00;;;;;;5048463;28;20224;-81
2022/11/15 07:09:18;;;;;;;21.90;14.87;;;4.10;99.90;;;;;;5048890;28;20661;-81
2022/11/15 07:11:44;;;;;;;22.53;15.60;;;4.20;99.90;;;;;;5049239;28;20183;-81
2022/11/15 07:14:09;;;;;;;21.63;14.93;;;4.20;92.70;;;;;;5046828;28;20200;-81
2022/11/15 07:16:36;;;;;;;21.60;14.40;;;4.10;11.60;;;;;;5048300;28;20206;-80
2022/11/15 07:19:02;;;;;;;23.70;15.00;;;4.30;11.70;;;;;;5045096;28;20190;-82
2022/11/15 07:21:27;;;;;;;20.70;14.23;;;4.10;72.60;;;;;;5048441;28;20209;-81
2022/11/15 07:23:53;;;;;;;18.77;13.90;;;4.10;99.90;;;;;;5048109;28;20186;-81
2022/11/15 07:26:18;;;;;;;20.40;14.60;;;4.20;99.90;;;;;;5046065;28;20222;-80
2022/11/15 07:28:44;;;;;;;23.50;15.90;;;4.30;99.90;;;;;;5046040;28;20178;-82
2022/11/15 07:31:11;;;;;;;24.53;15.83;;;4.70;1.00;;;;;;5046123;28;20186;-82
2022/11/15 07:33:37;;;;;;;24.43;15.40;;;4.90;1.00;;;;;;5047255;28;20193;-80
2022/11/15 07:36:05;;;;;;;27.63;16.63;;;5.00;1.00;;;;;;5046396;28;20210;-80
2022/11/15 07:38:30;;;;;;;22.97;15.90;;;5.20;1.00;;;;;;5047937;28;20290;-82
2022/11/15 07:40:58;;;;;;;20.67;15.60;;;5.30;1.00;;;;;;5044768;28;20289;-80
2022/11/15 07:43:24;;;;;;;20.17;14.37;;;5.50;1.00;;;;;;5042608;28;20277;-81
2022/11/15 07:45:49;;;;;;;18.50;14.03;;;5.60;1.00;;;;;;5045193;28;20282;-80
2022/11/15 07:48:15;;;;;;;20.17;14.60;;;5.70;1.00;;;;;;5046313;28;20206;-80
2022/11/15 07:50:42;;;;;;;20.23;14.30;;;5.80;99.90;;;;;;5048236;28;20277;-80
2022/11/15 07:53:08;;;;;;;19.57;14.37;;;5.90;99.90;;;;;;5047206;28;20773;-82
2022/11/15 07:55:34;;;;;;;18.97;13.97;;;6.00;99.90;;;;;;5045167;28;20221;-79
2022/11/15 07:58:08;;;;;;;18.60;13.87;;;6.20;99.90;;;;;;5041621;28;20602;-81
2022/11/15 08:00:35;;;;;;;20.37;13.60;;;6.50;99.90;;;;;;5043807;28;20185;-80
2022/11/15 08:03:10;;;;;;;17.30;13.93;;;6.60;1.00;;;;;;5043725;28;20300;-80
2022/11/15 08:05:37;;;;;;;15.50;12.40;;;6.70;1.00;;;;;;5043695;28;20225;-81
2022/11/15 08:08:03;;;;;;;15.30;12.37;;;7.20;99.90;;;;;;5043303;28;20206;-80
2022/11/15 08:10:29;;;;;;;12.93;11.13;;;6.90;99.90;;;;;;5044474;28;20201;-83
2022/11/15 08:13:00;;;;;;;14.60;11.57;;;7.40;99.90;;;;;;5043434;28;20195;-81
2022/11/15 08:15:27;;;;;;;14.03;11.50;;;7.60;14.20;;;;;;5042477;28;20299;-82
2022/11/15 08:18:14;;;;;;;14.70;12.10;;;7.00;1.00;;;;;;5042622;28;20189;-81
2022/11/15 08:20:39;;;;;;;13.97;11.90;;;7.00;1.00;;;;;;5044831;28;20190;-81
2022/11/15 08:23:05;;;;;;;14.40;11.77;;;6.90;1.00;;;;;;5044311;28;20190;-83
2022/11/15 08:25:33;;;;;;;12.20;10.57;;;7.00;37.50;;;;;;5043692;28;20210;-81
2022/11/15 08:28:01;;;;;;;14.80;11.57;;;7.00;1.00;;;;;;5042668;28;20722;-81
2022/11/15 08:30:28;;;;;;;13.67;11.43;;;7.10;1.00;;;;;;5045160;28;20212;-81
2022/11/15 08:32:55;;;;;;;17.10;12.60;;;7.10;99.90;;;;;;5042027;28;20193;-81
2022/11/15 08:35:21;;;;;;;16.47;12.40;;;7.30;1.00;;;;;;5042793;28;20206;-81
2022/11/15 08:37:47;;;;;;;16.73;12.40;;;7.40;99.90;;;;;;5043049;28;20243;-81
2022/11/15 08:40:13;;;;;;;13.10;11.67;;;7.40;99.90;;;;;;5042813;28;20563;-80
2022/11/15 08:42:39;;;;;;;15.23;11.60;;;7.50;99.90;;;;;;5044654;28;20185;-84
2022/11/15 08:45:05;;;;;;;14.20;11.07;;;8.20;99.90;;;;;;5040965;28;20590;-82
2022/11/15 08:47:31;;;;;;;21.47;11.67;;;7.60;1.00;;;;;;5042089;28;20201;-84
2022/11/15 08:49:57;;;;;;;35.20;12.53;;;8.10;1.00;;;;;;5041614;28;20198;-81
2022/11/15 08:52:22;;;;;;;36.23;11.67;;;7.80;1.00;;;;;;5042757;28;20178;-81
2022/11/15 08:54:48;;;;;;;24.77;11.60;;;8.60;1.00;;;;;;5043512;28;20644;-85
2022/11/15 08:57:14;;;;;;;17.63;11.93;;;8.60;99.90;;;;;;5042087;28;20202;-84
2022/11/15 08:59:39;;;;;;;20.60;12.50;;;8.50;99.90;;;;;;5043977;28;20654;-82
2022/11/15 09:02:05;;;;;;;56.03;14.13;;;8.30;99.90;;;;;;5044811;28;20569;-84
2022/11/15 09:04:31;;;;;;;39.17;13.37;;;8.10;99.90;;;;;;5043176;28;20220;-85
2022/11/15 09:06:57;;;;;;;57.47;13.13;;;8.30;99.90;;;;;;5042691;28;20550;-84
2022/11/15 09:09:23;;;;;;;45.73;12.00;;;8.40;99.90;;;;;;5044410;28;20197;-84
2022/11/15 09:11:50;;;;;;;33.33;12.30;;;9.00;99.90;;;;;;5047807;28;20193;-81
2022/11/15 09:14:16;;;;;;;29.13;11.53;;;8.20;99.90;;;;;;5047740;28;20573;-80
2022/11/15 09:16:41;;;;;;;50.97;14.67;;;8.10;99.90;;;;;;5049582;28;20198;-78
2022/11/15 09:19:07;;;;;;;79.20;16.23;;;8.20;99.90;;;;;;5049462;28;20186;-78
2022/11/15 09:21:33;;;;;;;104.30;17.93;;;8.20;99.90;;;;;;5049037;28;20209;-79
2022/11/15 09:23:58;;;;;;;52.43;13.17;;;8.20;99.90;;;;;;5043030;28;20741;-81
2022/11/15 09:26:25;;;;;;;42.00;11.83;;;8.50;99.90;;;;;;5043648;28;20226;-78
2022/11/15 09:28:50;;;;;;;40.43;11.67;;;8.20;99.90;;;;;;5049328;28;20312;-80
2022/11/15 09:31:16;;;;;;;43.60;13.13;;;8.30;1.00;;;;;;5049825;28;20203;-80
2022/11/15 09:33:45;;;;;;;35.47;10.83;;;8.80;1.00;;;;;;5049703;28;20252;-80
2022/11/15 09:36:11;;;;;;;74.30;13.63;;;8.50;1.00;;;;;;5048991;28;20206;-79
2022/11/15 09:38:37;;;;;;;34.17;11.50;;;8.60;1.00;;;;;;5049405;28;20189;-79
2022/11/15 09:41:12;;;;;;;39.23;11.07;;;8.80;1.00;;;;;;5047323;28;20194;-79
2022/11/15 09:43:51;;;;;;;55.57;11.17;;;8.70;1.00;;;;;;5045369;28;20205;-79
2022/11/15 09:46:19;;;;;;;68.23;12.43;;;8.80;1.00;;;;;;5048114;28;20644;-81
2022/11/15 09:48:55;;;;;;;42.23;11.33;;;9.10;1.00;;;;;;5046864;28;20268;-80
2022/11/15 09:51:47;;;;;;;23.87;9.63;;;9.00;1.00;;;;;;5048423;28;20185;-80
2022/11/15 09:54:18;;;;;;;23.40;9.53;;;9.00;1.00;;;;;;5044506;28;20277;-79
2022/11/15 09:56:45;;;;;;;51.30;11.97;;;9.00;1.00;;;;;;5044589;28;20691;-81
2022/11/15 09:59:34;;;;;;;44.80;10.77;;;9.00;1.00;;;;;;5045176;28;20182;-80
2022/11/15 10:02:38;;;;;;;29.10;10.53;;;9.00;1.00;;;;;;5044354;28;20190;-80
2022/11/15 10:05:06;;;;;;;26.57;10.23;;;9.10;1.00;;;;;;5047874;28;20739;-79
2022/11/15 10:08:18;;;;;;;20.70;9.93;;;9.20;1.00;;;;;;5047596;28;20205;-80
2022/11/15 10:10:54;;;;;;;13.10;9.20;;;9.30;1.00;;;;;;5047922;28;20190;-80
2022/11/15 10:13:25;;;;;;;10.80;8.90;;;9.40;1.00;;;;;;5045757;28;20318;-80
2022/11/15 10:15:54;;;;;;;14.97;9.23;;;9.40;1.00;;;;;;5047353;28;20226;-80
2022/11/15 10:18:50;;;;;;;14.27;8.87;;;9.60;1.00;;;;;;5047737;28;20181;-80
2022/11/15 10:21:20;;;;;;;14.07;9.87;;;9.60;1.00;;;;;;5044891;28;20367;-81
2022/11/15 10:23:46;;;;;;;9.80;8.57;;;9.50;1.00;;;;;;5048965;28;20182;-80
2022/11/15 10:26:15;;;;;;;11.63;7.40;;;9.70;1.00;;;;;;5048092;28;20210;-80
2022/11/15 10:28:41;;;;;;;8.80;6.90;;;9.90;99.90;;;;;;5045322;28;20190;-80
2022/11/15 10:31:23;;;;;;;11.20;7.40;;;10.10;99.90;;;;;;5046750;28;20186;-81
2022/11/15 10:33:49;;;;;;;8.43;6.90;;;10.10;99.90;;;;;;5047860;28;20194;-80
2022/11/15 10:36:17;;;;;;;8.17;6.50;;;10.10;99.90;;;;;;5048026;28;21028;-80
2022/11/15 10:38:49;;;;;;;9.83;6.97;;;10.20;99.90;;;;;;5046500;28;20182;-80
2022/11/15 10:41:15;;;;;;;8.67;7.20;;;10.30;99.90;;;;;;5047171;28;20267;-81
2022/11/15 10:43:41;;;;;;;8.77;7.03;;;10.40;99.90;;;;;;5048307;28;20594;-80
2022/11/15 10:46:23;;;;;;;7.90;6.87;;;10.50;99.90;;;;;;5047916;28;20311;-80
2022/11/15 10:48:49;;;;;;;10.03;6.90;;;10.60;99.90;;;;;;5053007;28;20202;-81
2022/11/15 10:51:28;;;;;;;8.50;7.07;;;10.70;99.90;;;;;;5052587;28;20182;-81
2022/11/15 10:54:00;;;;;;;8.90;7.00;;;10.90;99.90;;;;;;5053228;28;20193;-81
2022/11/15 10:56:26;;;;;;;7.10;6.40;;;11.10;99.90;;;;;;5046525;28;20255;-81
2022/11/15 10:59:01;;;;;;;8.32;6.90;;;11.20;99.90;;;;;;5045781;28;20189;-80
2022/11/15 11:01:29;;;;;;;8.32;6.15;;;11.40;99.90;;;;;;5045617;28;20189;-80
2022/11/15 11:04:06;;;;;;;10.15;6.90;;;11.50;99.90;;;;;;5045421;28;21191;-80
2022/11/15 11:06:57;;;;;;;7.35;5.88;;;11.50;99.90;;;;;;5044197;28;21465;-80
2022/11/15 11:09:35;;;;;;;7.30;5.73;;;11.60;99.90;;;;;;5041891;28;20257;-80
2022/11/15 11:12:02;;;;;;;7.05;6.43;;;11.60;99.90;;;;;;5042838;28;20214;-80
2022/11/15 11:14:36;;;;;;;7.20;5.75;;;11.70;99.90;;;;;;5041155;28;20178;-80
2022/11/15 11:17:11;;;;;;;6.90;5.72;;;11.90;99.90;;;;;;5040990;28;20221;-80
2022/11/15 11:19:45;;;;;;;8.15;5.72;;;11.90;84.00;;;;;;5042813;28;20182;-80
2022/11/15 11:22:19;;;;;;;6.88;5.07;;;12.00;86.60;;;;;;5042911;28;20311;-80
2022/11/15 11:24:54;;;;;;;6.68;5.45;;;12.00;92.30;;;;;;5043229;28;20781;-80
2022/11/15 11:27:30;;;;;;;7.20;5.63;;;12.00;87.50;;;;;;5043570;28;20382;-80
2022/11/15 11:30:16;;;;;;;6.82;6.07;;;12.10;84.30;;;;;;5043166;28;20432;-80
2022/11/15 11:32:58;;;;;;;6.32;5.72;;;12.20;87.40;;;;;;5042065;28;20175;-80
2022/11/15 11:35:27;;;;;;;6.18;5.53;;;12.20;66.80;;;;;;5045225;28;20194;-80
2022/11/15 11:37:59;;;;;;;6.95;6.30;;;12.30;53.50;;;;;;5044452;28;20186;-80
2022/11/15 11:40:24;;;;;;;7.82;5.28;;;12.30;51.80;;;;;;5045703;28;20185;-79
2022/11/15 11:43:17;;;;;;;6.53;5.57;;;12.30;47.00;;;;;;5046817;28;20186;-77
2022/11/15 11:46:11;;;;;;;10.88;5.18;;;12.20;23.30;;;;;;5046839;28;20819;-77
2022/11/15 11:48:51;;;;;;;7.68;5.40;;;12.10;32.90;;;;;;5049829;28;20769;-78
2022/11/15 11:51:28;;;;;;;7.05;6.35;;;12.00;24.80;;;;;;5045895;28;20256;-81
2022/11/15 11:54:06;;;;;;;6.57;5.30;;;12.20;33.80;;;;;;5044435;28;20546;-78
2022/11/15 11:56:34;;;;;;;7.13;5.47;;;12.30;35.10;;;;;;5049829;28;20198;-78
2022/11/15 11:59:19;;;;;;;8.07;5.20;;;12.40;22.00;;;;;;5047838;28;20182;-80
2022/11/15 12:01:45;;;;;;;5.43;4.93;;;12.60;21.00;;;;;;5047966;28;20178;-78
2022/11/15 12:04:32;;;;;;;6.50;5.00;;;12.70;14.70;;;;;;5049499;28;20205;-79
2022/11/15 12:06:57;;;;;;;5.28;4.78;;;12.60;13.60;;;;;;5048506;28;20206;-78
2022/11/15 12:09:35;;;;;;;6.97;5.40;;;12.50;10.70;;;;;;5047705;28;20228;-79
2022/11/15 12:12:08;;;;;;;5.80;4.82;;;12.60;14.60;;;;;;5045433;28;20268;-78
2022/11/15 12:14:43;;;;;;;7.45;5.63;;;12.70;15.30;;;;;;5046974;28;20190;-78
2022/11/15 12:17:11;;;;;;;5.25;4.63;;;12.70;13.40;;;;;;5047384;28;20205;-79
2022/11/15 12:19:37;;;;;;;7.75;5.55;;;12.80;16.60;;;;;;5047442;28;20196;-79
2022/11/15 12:22:23;;;;;;;6.05;4.90;;;12.90;8.10;;;;;;5047110;28;20570;-78
2022/11/15 12:24:57;;;;;;;5.68;4.72;;;12.90;2.30;;;;;;5044253;28;20213;-81
2022/11/15 12:27:48;;;;;;;5.10;4.60;;;13.00;1.00;;;;;;5043885;28;20217;-80
2022/11/15 12:30:22;;;;;;;5.65;5.13;;;12.90;1.00;;;;;;5044575;28;20255;-80
2022/11/15 12:32:57;;;;;;;5.28;4.60;;;13.00;1.00;;;;;;5043768;28;20232;-80
2022/11/15 12:35:39;;;;;;;6.13;4.82;;;12.90;1.00;;;;;;5044767;28;20206;-81
2022/11/15 12:38:09;;;;;;;5.85;5.03;;;12.80;1.90;;;;;;5043719;28;20816;-80
2022/11/15 12:40:37;;;;;;;6.35;5.57;;;12.50;6.90;;;;;;5045235;28;20182;-80
2022/11/15 12:43:25;;;;;;;7.95;5.63;;;12.60;9.30;;;;;;5046095;28;20186;-80
2022/11/15 12:45:50;;;;;;;6.63;5.47;;;12.50;8.10;;;;;;5052368;28;20214;-79
2022/11/15 12:48:16;;;;;;;5.97;5.38;;;12.60;6.10;;;;;;5052557;28;20212;-79
2022/11/15 12:50:53;;;;;;;7.40;5.18;;;12.50;8.40;;;;;;5048236;28;20878;-81
2022/11/15 12:53:25;;;;;;;6.32;5.45;;;12.50;10.60;;;;;;5048018;28;20720;-80
2022/11/15 12:56:12;;;;;;;7.57;5.75;;;12.40;15.10;;;;;;5047286;28;20221;-80
2022/11/15 12:58:51;;;;;;;5.53;5.00;;;12.40;16.00;;;;;;5047520;28;20182;-80
2022/11/15 13:04:27;;;;;;;6.60;5.18;;;12.40;19.70;;;;;;5048001;28;20251;-80
2022/11/15 13:06:57;;;;;;;8.10;5.43;;;12.40;23.00;;;;;;5047144;28;20555;-80
2022/11/15 13:09:32;;;;;;;6.43;5.45;;;12.40;35.50;;;;;;5046376;28;20277;-80